ETAR

Ramstein Air Base Airport

Ramstein, Germany
METAR ETAR 151956Z AUTO 00000KT 8000 BR CLR 17/16 A2999 RMK AO2 SLP151 T01660164 $
Observed Flight Rules
Jul-15 @ 19:56 UTC (60 minutes ago) Marginal Visual Flight Rules
Visibility Clouds Conditions
7,998 meters
  • Clear skies
  • Mist
Temperatures Readings
Current 17°C / 63°F
Dewpoint 16°C / 61°F
Humidity 94%
Altimeter 29.99" Hg
Pressure 1015.1 hPa
Elevation 238
METAR ETAR 151956Z AUTO 00000KT 8000 BR CLR 17/16 A2999 RMK AO2 SLP151 T01660164 $
Observed Flight Rules
Jul-15 @ 19:56 UTC
(60 minutes ago)
MVFR
Clouds
  • Clear skies
Conditions
  • Mist
Temperature Dewpoint
17°C / 63°F 16°C / 61°F
Humidity Altimeter Pressure
94% 29.99" Hg 1015.1 hPa